createdAt,value
2022-11-03T00:00:41.031Z,1.80
2022-11-03T00:02:03.280Z,2.10
2022-11-03T00:03:25.355Z,1.77
2022-11-03T00:04:47.339Z,1.90
2022-11-03T00:06:09.411Z,1.60
2022-11-03T00:07:31.462Z,2.20
2022-11-03T00:08:53.544Z,1.90
2022-11-03T00:10:15.731Z,1.90
2022-11-03T00:11:39.329Z,3.03
2022-11-03T00:13:01.330Z,2.00
2022-11-03T00:14:23.347Z,2.20
2022-11-03T00:15:48.997Z,1.80
2022-11-03T00:17:10.988Z,2.00
2022-11-03T00:18:33.501Z,2.07
2022-11-03T00:19:55.503Z,2.17
2022-11-03T00:21:17.523Z,2.70
2022-11-03T00:22:39.531Z,2.00
2022-11-03T00:24:05.026Z,2.20
2022-11-03T00:25:26.996Z,2.13
2022-11-03T00:26:49.019Z,2.10
2022-11-03T00:28:11.021Z,2.10
2022-11-03T00:29:33.365Z,1.67
2022-11-03T00:30:55.361Z,2.20
2022-11-03T00:32:17.775Z,2.17
2022-11-03T00:33:40.730Z,2.47
2022-11-03T00:35:02.705Z,1.97
2022-11-03T00:36:30.044Z,1.83
2022-11-03T00:37:52.085Z,1.87
2022-11-03T00:39:14.104Z,2.40
2022-11-03T00:40:36.101Z,1.90
2022-11-03T00:41:58.115Z,2.07
2022-11-03T00:43:20.489Z,1.87
2022-11-03T00:44:42.472Z,2.10
2022-11-03T00:46:05.922Z,1.60
2022-11-03T00:47:27.993Z,1.97
2022-11-03T00:48:50.617Z,2.67
2022-11-03T00:50:12.658Z,1.80
2022-11-03T00:51:37.724Z,2.00
2022-11-03T00:52:59.767Z,1.83
2022-11-03T00:54:21.764Z,2.00
2022-11-03T00:55:50.136Z,2.00
2022-11-03T00:57:12.188Z,1.40
2022-11-03T00:58:34.479Z,2.13
2022-11-03T00:59:56.444Z,2.20
2022-11-03T01:01:23.656Z,1.80
2022-11-03T01:02:45.776Z,1.80
2022-11-03T01:04:27.234Z,2.70
2022-11-03T01:06:07.724Z,1.87
2022-11-03T01:07:29.720Z,1.83
2022-11-03T01:08:52.042Z,1.47
2022-11-03T01:10:14.332Z,1.80
2022-11-03T01:11:45.568Z,1.90
2022-11-03T01:13:07.887Z,2.50
2022-11-03T01:14:34.960Z,2.00
2022-11-03T01:15:58.861Z,1.70
2022-11-03T01:17:24.911Z,1.93
2022-11-03T01:18:47.143Z,2.30
2022-11-03T01:20:09.484Z,2.37
2022-11-03T01:21:31.508Z,2.77
2022-11-03T01:22:53.503Z,2.23
2022-11-03T01:24:15.570Z,2.33
2022-11-03T01:25:37.582Z,2.33
2022-11-03T01:26:59.552Z,1.87
2022-11-03T01:28:21.511Z,2.33
2022-11-03T01:29:44.155Z,2.20
2022-11-03T01:31:07.975Z,2.57
2022-11-03T01:32:30.043Z,2.43
2022-11-03T01:33:54.298Z,2.20
2022-11-03T01:35:16.280Z,2.27
2022-11-03T01:36:38.283Z,2.20
2022-11-03T01:38:00.301Z,2.20
2022-11-03T01:39:22.424Z,2.57
2022-11-03T01:40:44.416Z,2.33
2022-11-03T01:42:06.417Z,2.17
2022-11-03T01:43:31.307Z,2.30
2022-11-03T01:44:53.310Z,2.70
2022-11-03T01:46:25.028Z,2.70
2022-11-03T01:47:47.367Z,2.93
2022-11-03T01:49:17.464Z,2.30
2022-11-03T01:50:44.295Z,2.70
2022-11-03T01:52:18.400Z,2.20
2022-11-03T01:53:45.118Z,2.30
2022-11-03T01:55:15.889Z,2.47
2022-11-03T01:56:43.484Z,2.97
2022-11-03T01:58:21.674Z,2.00
2022-11-03T01:59:44.861Z,2.30
2022-11-03T02:01:06.995Z,2.57
2022-11-03T02:02:29.172Z,2.53
2022-11-03T02:03:56.777Z,2.60
2022-11-03T02:05:21.225Z,2.90
2022-11-03T02:06:43.479Z,3.07
2022-11-03T02:08:11.423Z,2.77
2022-11-03T02:09:33.451Z,2.40
2022-11-03T02:10:56.773Z,2.87
2022-11-03T02:12:21.132Z,2.97
2022-11-03T02:13:43.135Z,2.77
2022-11-03T02:15:11.360Z,3.13
2022-11-03T02:16:33.630Z,2.67
2022-11-03T02:17:56.358Z,2.40
2022-11-03T02:19:43.247Z,2.47
2022-11-03T02:21:27.236Z,2.33
2022-11-03T02:23:07.637Z,2.80
2022-11-03T02:24:49.836Z,2.97
2022-11-03T02:26:16.686Z,3.33
2022-11-03T02:27:38.665Z,2.70
2022-11-03T02:29:00.732Z,3.33
2022-11-03T02:30:22.888Z,2.60
2022-11-03T02:31:51.784Z,2.53
2022-11-03T02:33:20.444Z,2.57
2022-11-03T02:35:02.501Z,2.57
2022-11-03T02:36:49.107Z,2.60
2022-11-03T02:38:15.964Z,2.70
2022-11-03T02:39:43.726Z,2.50
2022-11-03T02:41:08.497Z,2.83
2022-11-03T02:42:31.497Z,2.80
2022-11-03T02:43:56.708Z,2.67
2022-11-03T02:45:22.031Z,2.97
2022-11-03T02:46:47.403Z,2.93
2022-11-03T02:48:11.422Z,3.00
2022-11-03T02:49:39.946Z,2.50
2022-11-03T02:51:03.727Z,2.60
2022-11-03T02:52:48.858Z,3.50
2022-11-03T02:54:18.557Z,2.67
2022-11-03T02:56:06.544Z,2.70
2022-11-03T02:57:32.052Z,2.90
2022-11-03T02:59:10.049Z,2.73
2022-11-03T03:00:36.491Z,3.20
2022-11-03T03:02:11.265Z,2.77
2022-11-03T03:03:38.834Z,2.83
2022-11-03T03:05:03.908Z,3.07
2022-11-03T03:06:29.727Z,2.90
2022-11-03T03:07:56.325Z,2.37
2022-11-03T03:09:29.239Z,3.00
2022-11-03T03:10:53.116Z,2.30
2022-11-03T03:12:18.857Z,2.77
2022-11-03T03:13:43.100Z,2.87
2022-11-03T03:15:08.092Z,3.00
2022-11-03T03:16:35.744Z,3.03
2022-11-03T03:18:22.083Z,2.30
2022-11-03T03:19:48.110Z,2.87
2022-11-03T03:21:40.567Z,3.10
2022-11-03T03:23:11.484Z,2.40
2022-11-03T03:24:39.861Z,2.80
2022-11-03T03:26:12.573Z,2.80
2022-11-03T03:27:36.603Z,2.60
2022-11-03T03:29:03.578Z,2.30
2022-11-03T03:30:26.243Z,2.70
2022-11-03T03:31:55.106Z,2.70
2022-11-03T03:33:18.943Z,3.07
2022-11-03T03:34:43.343Z,2.93
2022-11-03T03:36:10.491Z,2.40
2022-11-03T03:37:35.687Z,2.40
2022-11-03T03:39:04.197Z,2.80
2022-11-03T03:40:31.730Z,2.70
2022-11-03T03:41:56.542Z,2.90
2022-11-03T03:43:20.105Z,2.40
2022-11-03T03:44:43.674Z,3.23
2022-11-03T03:46:10.372Z,2.53
2022-11-03T03:47:34.550Z,2.70
2022-11-03T03:48:56.620Z,2.87
2022-11-03T03:50:20.158Z,2.63
2022-11-03T03:51:43.072Z,3.40
2022-11-03T03:53:07.432Z,3.00
2022-11-03T03:54:29.473Z,2.83
2022-11-03T03:55:52.549Z,2.70
2022-11-03T03:57:17.708Z,2.90
2022-11-03T03:58:39.707Z,2.60
2022-11-03T04:00:01.728Z,3.00
2022-11-03T04:01:23.903Z,2.73
2022-11-03T04:02:45.993Z,2.97
2022-11-03T04:04:08.021Z,2.80
2022-11-03T04:05:30.005Z,3.10
2022-11-03T04:07:12.081Z,2.77
2022-11-03T04:08:34.171Z,2.63
2022-11-03T04:09:56.287Z,2.70
2022-11-03T04:11:53.410Z,3.13
2022-11-03T04:13:41.439Z,3.37
2022-11-03T04:15:23.059Z,2.70
2022-11-03T04:17:03.675Z,2.00
2022-11-03T04:18:44.161Z,3.00
2022-11-03T04:20:30.550Z,2.87
2022-11-03T04:22:11.304Z,2.90
2022-11-03T04:23:33.297Z,2.67
2022-11-03T04:24:55.372Z,3.70
2022-11-03T04:26:19.482Z,2.77
2022-11-03T04:27:41.696Z,2.73
2022-11-03T04:29:06.807Z,2.40
2022-11-03T04:30:28.810Z,2.87
2022-11-03T04:31:50.827Z,2.30
2022-11-03T04:33:16.371Z,3.30
2022-11-03T04:34:38.422Z,2.60
2022-11-03T04:36:00.561Z,2.60
2022-11-03T04:37:22.551Z,2.87
2022-11-03T04:38:45.328Z,3.73
2022-11-03T04:40:15.259Z,2.80
2022-11-03T04:41:38.689Z,3.07
2022-11-03T04:43:00.711Z,2.70
2022-11-03T04:44:22.790Z,2.70
2022-11-03T04:45:46.268Z,3.07
2022-11-03T04:47:12.904Z,3.00
2022-11-03T04:48:35.076Z,2.90
2022-11-03T04:49:58.581Z,2.40
2022-11-03T04:51:23.877Z,2.70
2022-11-03T04:52:57.646Z,2.50
2022-11-03T04:54:23.302Z,2.77
2022-11-03T04:55:46.996Z,2.77
2022-11-03T04:57:12.769Z,7.30
2022-11-03T04:58:36.097Z,2.80
2022-11-03T04:59:58.098Z,2.73
2022-11-03T05:01:24.548Z,2.30
2022-11-03T05:02:51.539Z,2.80
2022-11-03T05:04:18.353Z,2.40
2022-11-03T05:05:40.502Z,3.00
2022-11-03T05:07:02.554Z,2.40
2022-11-03T05:08:24.972Z,3.10
2022-11-03T05:09:47.074Z,3.00
2022-11-03T05:11:42.034Z,2.50
2022-11-03T05:13:09.194Z,3.03
2022-11-03T05:14:32.921Z,3.13
2022-11-03T05:16:02.901Z,3.33
2022-11-03T05:17:28.207Z,2.60
2022-11-03T05:18:50.911Z,3.10
2022-11-03T05:20:35.576Z,2.87
2022-11-03T05:22:00.121Z,3.10
2022-11-03T05:23:23.167Z,3.07
2022-11-03T05:24:45.317Z,3.10
2022-11-03T05:26:14.782Z,2.90
2022-11-03T05:27:36.912Z,3.50
2022-11-03T05:29:09.484Z,2.83
2022-11-03T05:30:31.561Z,2.63
2022-11-03T05:31:54.957Z,2.93
2022-11-03T05:33:32.433Z,2.80
2022-11-03T05:34:55.980Z,2.60
2022-11-03T05:36:22.273Z,3.43
2022-11-03T05:37:44.485Z,3.07
2022-11-03T05:39:21.042Z,2.80
2022-11-03T05:40:43.189Z,3.07
2022-11-03T05:42:30.200Z,3.03
2022-11-03T05:44:23.124Z,3.40
2022-11-03T05:45:45.751Z,3.27
2022-11-03T05:47:33.450Z,2.90
2022-11-03T05:48:55.773Z,2.80
2022-11-03T05:50:25.924Z,2.90
2022-11-03T05:51:48.309Z,3.80
2022-11-03T05:53:26.779Z,2.77
2022-11-03T05:54:49.440Z,2.80
2022-11-03T05:56:18.289Z,2.97
2022-11-03T05:57:40.338Z,4.93
2022-11-03T05:59:04.855Z,3.47
2022-11-03T06:00:32.733Z,3.43
2022-11-03T06:01:59.486Z,3.53
2022-11-03T06:03:28.076Z,3.23
2022-11-03T06:04:50.226Z,3.23
2022-11-03T06:06:28.010Z,3.43
2022-11-03T06:07:55.602Z,3.17
2022-11-03T06:09:21.621Z,3.20
2022-11-03T06:10:51.719Z,3.40
2022-11-03T06:12:18.914Z,3.30
2022-11-03T06:13:40.892Z,3.27
2022-11-03T06:15:13.466Z,3.30
2022-11-03T06:16:41.660Z,4.43
2022-11-03T06:18:18.788Z,3.50
2022-11-03T06:19:48.192Z,3.10
2022-11-03T06:21:19.069Z,2.93
2022-11-03T06:22:41.089Z,2.87
2022-11-03T06:24:03.127Z,3.37
2022-11-03T06:25:28.057Z,3.03
2022-11-03T06:26:51.184Z,3.40
2022-11-03T06:28:24.249Z,4.00
2022-11-03T06:29:52.123Z,4.07
2022-11-03T06:31:23.576Z,2.83
2022-11-03T06:32:46.121Z,3.10
2022-11-03T06:34:37.727Z,3.77
2022-11-03T06:36:10.385Z,2.80
2022-11-03T06:37:33.462Z,3.20
2022-11-03T06:39:01.460Z,3.80
2022-11-03T06:40:26.365Z,3.20
2022-11-03T06:41:48.388Z,3.53
2022-11-03T06:43:20.204Z,3.53
2022-11-03T06:44:44.319Z,3.10
2022-11-03T06:46:16.589Z,3.50
2022-11-03T06:47:40.504Z,3.50
2022-11-03T06:49:36.998Z,3.57
2022-11-03T06:50:59.995Z,3.43
2022-11-03T06:52:29.487Z,3.53
2022-11-03T06:53:53.633Z,2.80
2022-11-03T06:55:21.839Z,3.40
2022-11-03T06:56:43.876Z,3.20
2022-11-03T06:58:27.722Z,3.50
2022-11-03T07:00:06.824Z,3.43
2022-11-03T07:01:35.333Z,2.80
2022-11-03T07:03:16.302Z,3.33
2022-11-03T07:04:39.701Z,3.13
2022-11-03T07:06:10.527Z,3.10
2022-11-03T07:07:32.527Z,4.13
2022-11-03T07:08:58.794Z,2.90
2022-11-03T07:10:24.213Z,3.00
2022-11-03T07:12:15.727Z,4.70
2022-11-03T07:13:37.816Z,3.10
2022-11-03T07:14:59.937Z,3.00
2022-11-03T07:16:37.423Z,3.07
2022-11-03T07:18:01.271Z,3.10
2022-11-03T07:19:23.249Z,2.90
2022-11-03T07:20:45.653Z,2.97
2022-11-03T07:22:21.903Z,3.10
2022-11-03T07:23:46.309Z,2.90
2022-11-03T07:25:16.156Z,2.73
2022-11-03T07:26:38.149Z,2.77
2022-11-03T07:28:02.153Z,2.60
2022-11-03T07:29:28.138Z,3.30
2022-11-03T07:30:50.280Z,3.10
2022-11-03T07:32:38.794Z,3.40
2022-11-03T07:34:00.899Z,2.70
2022-11-03T07:35:53.320Z,2.77
2022-11-03T07:37:26.172Z,3.00
2022-11-03T07:38:52.696Z,2.80
2022-11-03T07:40:18.737Z,2.97
2022-11-03T07:41:40.811Z,2.90
2022-11-03T07:43:12.866Z,3.30
2022-11-03T07:44:34.876Z,3.27
2022-11-03T07:45:59.265Z,2.70
2022-11-03T07:47:25.746Z,3.07
2022-11-03T07:48:49.779Z,2.67
2022-11-03T07:50:15.491Z,2.63
2022-11-03T07:51:40.720Z,2.77
2022-11-03T07:53:03.357Z,3.20
2022-11-03T07:54:30.637Z,2.80
2022-11-03T07:55:54.632Z,2.80
2022-11-03T07:57:26.269Z,2.87
2022-11-03T07:59:00.006Z,3.87
2022-11-03T08:00:22.807Z,3.20
2022-11-03T08:01:55.622Z,2.37
2022-11-03T08:03:33.757Z,3.50
2022-11-03T08:04:58.544Z,3.00
2022-11-03T08:06:20.540Z,2.40
2022-11-03T08:07:42.595Z,2.70
2022-11-03T08:09:05.849Z,3.10
2022-11-03T08:10:27.881Z,2.40
2022-11-03T08:11:50.949Z,3.10
2022-11-03T08:13:12.974Z,2.90
2022-11-03T08:14:35.374Z,2.60
2022-11-03T08:15:58.096Z,2.83
2022-11-03T08:17:20.127Z,2.93
2022-11-03T08:18:42.314Z,3.30
2022-11-03T08:20:05.664Z,2.80
2022-11-03T08:21:27.928Z,2.57
2022-11-03T08:23:19.573Z,3.33
2022-11-03T08:24:32.006Z,2.30
2022-11-03T08:25:54.117Z,2.67
2022-11-03T08:27:16.105Z,2.50
2022-11-03T08:28:38.141Z,2.70
2022-11-03T08:30:00.137Z,2.30
2022-11-03T08:31:22.210Z,2.73
2022-11-03T08:32:46.740Z,3.07
2022-11-03T08:34:08.736Z,2.90
2022-11-03T08:35:33.204Z,2.93
2022-11-03T08:36:56.205Z,2.60
2022-11-03T08:38:18.197Z,2.60
2022-11-03T08:39:40.241Z,3.80
2022-11-03T08:41:02.353Z,3.17
2022-11-03T08:42:24.905Z,3.57
2022-11-03T08:43:46.884Z,2.60
2022-11-03T08:45:09.231Z,2.30
2022-11-03T08:46:31.309Z,2.60
2022-11-03T08:47:53.398Z,3.30
2022-11-03T08:49:15.394Z,2.90
2022-11-03T08:50:37.406Z,2.83
2022-11-03T08:52:00.286Z,2.77
2022-11-03T08:53:26.305Z,3.37
2022-11-03T08:54:50.371Z,2.83
2022-11-03T08:56:14.447Z,3.30
2022-11-03T08:57:37.335Z,2.80
2022-11-03T08:58:59.369Z,3.43
2022-11-03T09:00:22.547Z,3.90
2022-11-03T09:01:45.047Z,2.50
2022-11-03T09:03:07.369Z,2.50
2022-11-03T09:04:29.401Z,2.50
2022-11-03T09:05:51.578Z,2.40
2022-11-03T09:07:13.790Z,2.90
2022-11-03T09:11:40.036Z,2.67
2022-11-03T09:13:02.045Z,2.40
2022-11-03T09:14:24.024Z,3.00
2022-11-03T09:15:46.221Z,3.00
2022-11-03T09:17:08.400Z,3.53
2022-11-03T09:18:30.407Z,3.30
2022-11-03T09:19:52.396Z,3.27
2022-11-03T09:21:16.049Z,2.83
2022-11-03T09:22:38.081Z,3.30
2022-11-03T09:24:00.197Z,3.03
2022-11-03T09:25:22.465Z,2.30
2022-11-03T09:26:44.482Z,3.27
2022-11-03T09:28:06.827Z,2.37
2022-11-03T09:29:36.422Z,2.77
2022-11-03T09:31:08.385Z,2.27
2022-11-03T09:32:31.276Z,2.60
2022-11-03T09:33:53.312Z,2.80
2022-11-03T09:35:17.187Z,2.63
2022-11-03T09:36:39.218Z,2.10
2022-11-03T09:38:01.364Z,2.33
2022-11-03T09:39:23.419Z,2.93
2022-11-03T09:40:45.619Z,2.57
2022-11-03T09:42:08.436Z,2.67
2022-11-03T09:43:32.345Z,2.20
2022-11-03T09:44:55.435Z,3.03
2022-11-03T09:46:18.593Z,2.50
2022-11-03T09:47:42.600Z,1.90
2022-11-03T09:49:05.839Z,2.80
2022-11-03T09:50:27.980Z,2.60
2022-11-03T09:51:50.122Z,2.30
2022-11-03T09:53:12.833Z,2.70
2022-11-03T09:54:35.194Z,2.30
2022-11-03T09:55:57.194Z,2.00
2022-11-03T09:57:19.263Z,2.17
2022-11-03T09:58:41.606Z,2.40
2022-11-03T10:00:04.846Z,2.10
2022-11-03T10:01:27.459Z,2.17
2022-11-03T10:02:50.928Z,2.57
2022-11-03T10:04:13.387Z,2.10
2022-11-03T10:05:35.594Z,1.93
2022-11-03T10:06:58.815Z,2.30
2022-11-03T10:08:36.676Z,2.07
2022-11-03T10:10:00.972Z,1.80
2022-11-03T10:11:23.460Z,1.77
2022-11-03T10:12:46.864Z,2.60
2022-11-03T10:14:13.114Z,1.80
2022-11-03T10:15:35.541Z,2.13
2022-11-03T10:17:00.454Z,2.33
2022-11-03T10:18:22.849Z,2.63
2022-11-03T10:19:50.982Z,1.90
2022-11-03T10:21:12.969Z,2.20
2022-11-03T10:22:38.473Z,2.30
2022-11-03T10:24:02.992Z,1.97
2022-11-03T10:25:25.869Z,2.30
2022-11-03T10:26:50.917Z,1.50
2022-11-03T10:28:15.819Z,1.60
2022-11-03T10:29:39.977Z,1.93
2022-11-03T10:31:18.414Z,1.80
2022-11-03T10:32:41.515Z,1.70
2022-11-03T10:34:05.205Z,2.00
2022-11-03T10:35:35.121Z,1.70
2022-11-03T10:37:23.904Z,1.97
2022-11-03T10:38:47.795Z,1.97
2022-11-03T10:40:52.228Z,1.60
2022-11-03T10:42:29.177Z,1.53
2022-11-03T10:44:08.070Z,1.90
2022-11-03T10:45:30.459Z,1.73
2022-11-03T10:46:56.947Z,1.90
2022-11-03T10:48:19.046Z,3.20
2022-11-03T10:49:43.844Z,1.93
2022-11-03T10:51:09.391Z,1.77
2022-11-03T10:52:31.529Z,1.83
2022-11-03T10:53:53.595Z,1.80
2022-11-03T10:55:19.265Z,1.70
2022-11-03T10:56:46.136Z,1.80
2022-11-03T10:58:08.430Z,1.83
2022-11-03T10:59:37.033Z,2.17
2022-11-03T11:00:59.670Z,1.60
2022-11-03T11:02:26.086Z,1.73
2022-11-03T11:03:48.446Z,1.77
2022-11-03T11:05:21.746Z,1.67
2022-11-03T11:06:44.432Z,1.87
2022-11-03T11:08:06.631Z,1.43
2022-11-03T11:09:28.934Z,1.83
2022-11-03T11:10:51.130Z,1.50
2022-11-03T11:12:19.130Z,1.70
2022-11-03T11:13:41.885Z,1.53
2022-11-03T11:15:25.196Z,1.70
2022-11-03T11:16:51.373Z,1.90
2022-11-03T11:18:28.807Z,2.00
2022-11-03T11:20:22.369Z,1.60
2022-11-03T11:21:44.473Z,1.30
2022-11-03T11:23:28.586Z,1.93
2022-11-03T11:24:50.613Z,1.73
2022-11-03T11:26:16.641Z,1.97
2022-11-03T11:27:41.578Z,1.90
2022-11-03T11:29:09.564Z,1.50
2022-11-03T11:30:31.557Z,1.80
2022-11-03T11:32:35.461Z,1.67
2022-11-03T11:34:14.400Z,1.60
2022-11-03T11:35:36.433Z,1.70
2022-11-03T11:36:58.462Z,1.50
2022-11-03T11:38:56.975Z,1.53
2022-11-03T11:40:24.809Z,1.83
2022-11-03T11:42:12.283Z,1.53
2022-11-03T11:43:34.564Z,2.10
2022-11-03T11:44:58.856Z,1.67
2022-11-03T11:46:24.205Z,1.80
2022-11-03T11:47:52.707Z,1.50
2022-11-03T11:49:17.288Z,1.60
2022-11-03T11:50:39.621Z,1.63
2022-11-03T11:52:02.735Z,1.67
2022-11-03T11:53:30.712Z,1.80
2022-11-03T11:54:54.057Z,2.07
2022-11-03T11:56:19.391Z,1.50
2022-11-03T11:57:41.469Z,1.60
2022-11-03T11:59:03.564Z,2.03
2022-11-03T12:00:29.082Z,1.47
2022-11-03T12:01:54.000Z,2.13
2022-11-03T12:03:16.321Z,1.67
2022-11-03T12:04:38.388Z,1.60
2022-11-03T12:06:00.523Z,2.00
2022-11-03T12:07:33.601Z,1.90
2022-11-03T12:09:09.250Z,1.33
2022-11-03T12:10:31.817Z,1.57
2022-11-03T12:12:00.765Z,1.57
2022-11-03T12:13:51.409Z,1.50
2022-11-03T12:16:11.145Z,1.23
2022-11-03T12:17:34.140Z,1.73
2022-11-03T12:18:56.758Z,1.67
2022-11-03T12:20:47.997Z,1.50
2022-11-03T12:22:33.206Z,1.30
2022-11-03T12:23:55.216Z,1.60
2022-11-03T12:25:35.150Z,1.77
2022-11-03T12:26:57.995Z,1.60
2022-11-03T12:28:33.361Z,1.40
2022-11-03T12:29:57.786Z,1.90
2022-11-03T12:31:20.008Z,1.90
2022-11-03T12:32:42.065Z,2.40
2022-11-03T12:34:04.100Z,1.50
2022-11-03T12:35:26.189Z,1.70
2022-11-03T12:36:53.161Z,1.40
2022-11-03T12:38:17.947Z,1.57
2022-11-03T12:39:40.084Z,1.50
2022-11-03T12:41:21.261Z,1.80
2022-11-03T12:42:43.352Z,1.53
2022-11-03T12:44:05.722Z,1.20
2022-11-03T12:45:27.762Z,1.73
2022-11-03T12:46:49.790Z,1.43
2022-11-03T12:48:12.030Z,2.50
2022-11-03T12:49:34.128Z,2.30
2022-11-03T12:50:56.149Z,1.50
2022-11-03T12:52:18.241Z,1.77
2022-11-03T12:53:41.017Z,1.27
2022-11-03T12:55:03.170Z,1.23
2022-11-03T12:56:25.401Z,1.60
2022-11-03T12:57:47.502Z,1.87
2022-11-03T12:59:09.589Z,1.90
2022-11-03T13:00:31.666Z,1.40
2022-11-03T13:01:53.927Z,1.30
2022-11-03T13:03:16.091Z,1.43
2022-11-03T13:04:38.205Z,1.67
2022-11-03T13:06:01.131Z,1.30
2022-11-03T13:07:28.988Z,2.07
2022-11-03T13:08:53.945Z,1.63
2022-11-03T13:10:16.709Z,1.50
2022-11-03T13:11:57.528Z,1.53
2022-11-03T13:13:20.034Z,1.53
2022-11-03T13:14:45.989Z,2.47
2022-11-03T13:16:09.872Z,1.80
2022-11-03T13:17:45.653Z,1.40
2022-11-03T13:19:14.206Z,1.53
2022-11-03T13:20:36.654Z,1.73
2022-11-03T13:21:58.770Z,1.80
2022-11-03T13:23:22.980Z,1.80
2022-11-03T13:24:45.695Z,1.67
2022-11-03T13:26:07.957Z,1.40
2022-11-03T13:27:30.046Z,1.77
2022-11-03T13:28:52.648Z,1.30
2022-11-03T13:30:14.721Z,1.30
2022-11-03T13:31:36.911Z,1.80
2022-11-03T13:32:59.398Z,1.80
2022-11-03T13:34:21.440Z,1.27
2022-11-03T13:35:43.664Z,1.40
2022-11-03T13:37:05.831Z,1.60
2022-11-03T13:38:27.931Z,1.30
2022-11-03T13:39:50.028Z,1.93
2022-11-03T13:41:12.072Z,1.90
2022-11-03T13:42:34.232Z,2.00
2022-11-03T13:43:56.216Z,1.30
2022-11-03T13:45:18.283Z,2.13
2022-11-03T13:46:40.404Z,1.80
2022-11-03T13:50:12.529Z,1.37
2022-11-03T13:51:26.811Z,2.20
2022-11-03T13:52:49.407Z,2.00
2022-11-03T13:55:55.100Z,2.17
2022-11-03T14:00:43.489Z,1.60
2022-11-03T14:05:30.803Z,1.63
2022-11-03T14:06:52.867Z,1.40
2022-11-03T14:08:14.961Z,1.57
2022-11-03T14:10:59.004Z,1.50
2022-11-03T14:12:32.932Z,1.40
2022-11-03T14:13:54.982Z,1.50
2022-11-03T14:15:17.046Z,1.43
2022-11-03T14:16:39.209Z,1.77
2022-11-03T14:18:01.284Z,1.90
2022-11-03T14:19:29.401Z,1.27
2022-11-03T14:20:56.333Z,1.70
2022-11-03T14:22:18.373Z,1.80
2022-11-03T14:23:40.608Z,1.60
2022-11-03T14:25:02.884Z,1.60
2022-11-03T14:26:41.342Z,1.43
2022-11-03T14:28:04.828Z,1.80
2022-11-03T14:29:27.149Z,2.20
2022-11-03T14:30:49.226Z,1.90
2022-11-03T14:32:12.398Z,2.27
2022-11-03T14:33:34.482Z,2.20
2022-11-03T14:34:56.578Z,1.83
2022-11-03T14:36:19.064Z,2.10
2022-11-03T14:37:41.079Z,2.00
2022-11-03T14:39:03.436Z,2.07
2022-11-03T14:40:44.241Z,2.30
2022-11-03T14:42:11.751Z,1.63
2022-11-03T14:43:35.277Z,2.37
2022-11-03T14:44:57.391Z,2.30
2022-11-03T14:46:19.493Z,1.57
2022-11-03T14:47:41.533Z,2.10
2022-11-03T14:49:04.161Z,1.70
2022-11-03T14:50:26.166Z,2.73
2022-11-03T14:51:48.178Z,2.97
2022-11-03T14:53:10.230Z,2.30
2022-11-03T14:54:32.412Z,1.57
2022-11-03T14:55:54.403Z,2.57
2022-11-03T14:57:16.464Z,2.57
2022-11-03T14:58:38.678Z,2.20
2022-11-03T15:00:00.729Z,2.33
2022-11-03T15:01:22.969Z,2.90
2022-11-03T15:02:45.067Z,2.40
2022-11-03T15:04:08.000Z,1.93
2022-11-03T15:05:45.185Z,2.13
2022-11-03T15:07:07.211Z,2.00
2022-11-03T15:08:30.962Z,2.73
2022-11-03T15:09:53.001Z,2.53
2022-11-03T15:11:15.222Z,1.90
2022-11-03T15:12:37.274Z,3.20
2022-11-03T15:13:59.578Z,2.97
2022-11-03T15:15:21.591Z,2.60
2022-11-03T15:16:46.005Z,2.63
2022-11-03T15:18:09.583Z,3.00
2022-11-03T15:19:31.746Z,2.10
2022-11-03T15:20:54.168Z,2.40
2022-11-03T15:22:16.272Z,2.70
2022-11-03T15:25:23.862Z,2.20
2022-11-03T15:26:50.935Z,3.10
2022-11-03T15:28:12.927Z,2.90
2022-11-03T15:29:35.931Z,2.53
2022-11-03T15:30:58.135Z,2.70
2022-11-03T15:32:20.142Z,2.70
2022-11-03T15:33:42.151Z,3.60
2022-11-03T15:35:05.007Z,1.83
2022-11-03T15:36:27.013Z,2.23
2022-11-03T15:37:49.091Z,2.60
2022-11-03T15:39:11.077Z,2.47
2022-11-03T15:40:33.083Z,2.83
2022-11-03T15:41:56.342Z,2.20
2022-11-03T15:43:18.797Z,2.33
2022-11-03T15:44:40.810Z,3.23
2022-11-03T15:46:02.839Z,2.83
2022-11-03T15:47:24.849Z,2.60
2022-11-03T15:48:46.963Z,2.70
2022-11-03T15:50:09.928Z,2.83
2022-11-03T15:51:31.926Z,2.80
2022-11-03T15:52:54.748Z,2.87
2022-11-03T15:54:16.766Z,3.50
2022-11-03T15:55:38.784Z,3.37
2022-11-03T15:57:00.825Z,2.97
2022-11-03T15:58:22.886Z,3.30
2022-11-03T15:59:45.201Z,3.50
2022-11-03T16:01:07.406Z,3.10
2022-11-03T16:02:41.346Z,3.37
2022-11-03T16:04:04.279Z,3.37
2022-11-03T16:05:26.273Z,3.40
2022-11-03T16:08:30.335Z,3.40
2022-11-03T16:09:52.394Z,4.03
2022-11-03T16:11:14.566Z,3.13
2022-11-03T16:12:37.479Z,3.57
2022-11-03T16:14:00.022Z,3.23
2022-11-03T16:15:22.023Z,3.67
2022-11-03T16:16:44.115Z,2.90
2022-11-03T16:18:06.354Z,2.97
2022-11-03T16:19:28.580Z,3.03
2022-11-03T16:20:50.612Z,3.50
2022-11-03T16:22:13.261Z,3.20
2022-11-03T16:23:35.265Z,2.87
2022-11-03T16:24:57.312Z,3.50
2022-11-03T16:26:21.904Z,3.80
2022-11-03T16:27:44.016Z,2.87
2022-11-03T16:29:06.105Z,3.43
2022-11-03T16:30:28.170Z,3.20
2022-11-03T16:31:50.391Z,4.23
2022-11-03T16:33:12.464Z,2.80
2022-11-03T16:34:34.456Z,3.60
2022-11-03T16:35:56.580Z,3.83
2022-11-03T16:37:18.596Z,3.60
2022-11-03T16:38:40.741Z,3.70
2022-11-03T16:40:03.055Z,3.27
2022-11-03T16:41:25.216Z,2.87
2022-11-03T16:42:47.824Z,2.43
2022-11-03T16:44:09.917Z,2.80
2022-11-03T16:45:37.238Z,2.97
2022-11-03T16:46:59.983Z,4.10
2022-11-03T16:48:22.259Z,3.10
2022-11-03T16:49:44.256Z,3.60
2022-11-03T16:51:06.307Z,3.17
2022-11-03T16:52:28.350Z,3.40
2022-11-03T16:53:52.809Z,3.20
2022-11-03T16:55:16.284Z,3.60
2022-11-03T16:56:38.318Z,3.40
2022-11-03T16:58:00.372Z,3.07
2022-11-03T16:59:24.279Z,3.73
2022-11-03T17:00:46.418Z,3.27
2022-11-03T17:02:15.081Z,2.97
2022-11-03T17:03:38.336Z,3.13
2022-11-03T17:05:00.388Z,3.47
2022-11-03T17:06:22.509Z,3.10
2022-11-03T17:07:48.762Z,3.73
2022-11-03T17:09:15.122Z,3.47
2022-11-03T17:10:37.143Z,3.63
2022-11-03T17:11:59.220Z,3.33
2022-11-03T17:13:21.209Z,4.10
2022-11-03T17:14:43.244Z,3.93
2022-11-03T17:16:05.531Z,3.23
2022-11-03T17:17:27.606Z,3.73
2022-11-03T17:18:49.705Z,3.27
2022-11-03T17:20:12.841Z,3.73
2022-11-03T17:21:34.911Z,3.37
2022-11-03T17:22:57.889Z,3.37
2022-11-03T17:24:20.338Z,3.27
2022-11-03T17:25:43.491Z,3.70
2022-11-03T17:27:12.993Z,3.40
2022-11-03T17:28:35.018Z,4.70
2022-11-03T17:30:00.366Z,3.47
2022-11-03T17:31:22.409Z,3.47
2022-11-03T17:32:44.611Z,3.43
2022-11-03T17:34:06.649Z,4.03
2022-11-03T17:35:42.681Z,3.50
2022-11-03T17:37:04.966Z,4.00
2022-11-03T17:38:28.104Z,3.67
2022-11-03T17:39:50.564Z,3.93
2022-11-03T17:41:15.089Z,3.63
2022-11-03T17:42:40.109Z,3.40
2022-11-03T17:44:02.327Z,3.40
2022-11-03T17:45:25.852Z,3.50
2022-11-03T17:46:47.925Z,4.00
2022-11-03T17:48:09.944Z,3.13
2022-11-03T17:49:31.959Z,3.30
2022-11-03T17:50:56.196Z,3.30
2022-11-03T17:52:28.253Z,3.50
2022-11-03T17:53:50.600Z,3.40
2022-11-03T17:55:28.221Z,3.80
2022-11-03T17:56:50.274Z,3.77
2022-11-03T17:58:12.384Z,3.30
2022-11-03T17:59:34.569Z,3.30
2022-11-03T18:00:58.182Z,4.20
2022-11-03T18:02:25.624Z,3.60
2022-11-03T18:03:47.979Z,3.30
2022-11-03T18:05:26.845Z,3.80
2022-11-03T18:06:49.010Z,3.70
2022-11-03T18:08:11.861Z,3.90
2022-11-03T18:09:33.939Z,4.20
2022-11-03T18:10:56.955Z,4.00
2022-11-03T18:12:42.728Z,4.17
2022-11-03T18:14:04.939Z,4.43
2022-11-03T18:15:28.514Z,4.13
2022-11-03T18:16:51.658Z,3.90
2022-11-03T18:18:44.086Z,4.77
2022-11-03T18:20:27.646Z,4.90
2022-11-03T18:21:49.781Z,4.30
2022-11-03T18:23:17.065Z,4.60
2022-11-03T18:24:39.061Z,3.80
2022-11-03T18:26:02.677Z,3.63
2022-11-03T18:27:25.516Z,4.67
2022-11-03T18:28:49.300Z,3.30
2022-11-03T18:30:13.045Z,3.27
2022-11-03T18:31:42.961Z,3.60
2022-11-03T18:33:05.520Z,3.90
2022-11-03T18:34:28.138Z,3.40
2022-11-03T18:35:50.436Z,4.17
2022-11-03T18:37:12.606Z,4.17
2022-11-03T18:38:36.598Z,3.70
2022-11-03T18:39:59.203Z,3.53
2022-11-03T18:41:36.290Z,3.10
2022-11-03T18:42:58.424Z,3.33
2022-11-03T18:44:22.747Z,4.10
2022-11-03T18:45:45.282Z,4.10
2022-11-03T18:47:07.349Z,4.00
2022-11-03T18:48:29.480Z,3.90
2022-11-03T18:49:51.516Z,4.17
2022-11-03T18:51:13.591Z,3.47
2022-11-03T18:52:40.663Z,3.43
2022-11-03T18:54:03.129Z,3.93
2022-11-03T18:55:25.328Z,3.40
2022-11-03T18:56:48.085Z,3.20
2022-11-03T18:58:24.599Z,3.40
2022-11-03T18:59:46.945Z,3.73
2022-11-03T19:01:24.126Z,3.80
2022-11-03T19:02:47.503Z,4.10
2022-11-03T19:04:14.946Z,3.03
2022-11-03T19:05:38.194Z,3.37
2022-11-03T19:07:02.937Z,3.27
2022-11-03T19:08:32.102Z,3.23
2022-11-03T19:09:54.925Z,4.17
2022-11-03T19:11:16.995Z,3.40
2022-11-03T19:12:40.406Z,3.77
2022-11-03T19:14:02.605Z,3.40
2022-11-03T19:15:25.953Z,3.30
2022-11-03T19:17:21.396Z,3.73
2022-11-03T19:18:35.615Z,3.60
2022-11-03T19:19:57.637Z,4.03
2022-11-03T19:21:23.491Z,4.50